Time;durP1;ratioP1;P1;durP2;ratioP2;P2;SDS_P1;SDS_P2;PMS_P1;PMS_P2;Temp;Humidity;BMP_temperature;BMP_pressure;BME280_temperature;BME280_humidity;BME280_pressure;Samples;Min_cycle;Max_cycle;Signal;HPM_P1;HPM_P2
2021/09/05 00:01:05;;;;;;;19.77;10.73;;;;;;;;;;5056233;28;20071;-67
2021/09/05 00:03:32;;;;;;;18.42;10.85;;;;;;;;;;5056231;28;20031;-66
2021/09/05 00:05:58;;;;;;;17.27;9.70;;;;;;;;;;5056295;28;20040;-67
2021/09/05 00:08:24;;;;;;;20.02;10.65;;;;;;;;;;5056120;28;20032;-68
2021/09/05 00:10:50;;;;;;;18.52;11.07;;;;;;;;;;5056119;28;20029;-67
2021/09/05 00:13:16;;;;;;;17.38;10.90;;;;;;;;;;5055950;28;20036;-68
2021/09/05 00:15:42;;;;;;;13.98;9.90;;;;;;;;;;5056034;28;20381;-67
2021/09/05 00:18:08;;;;;;;18.75;10.98;;;;;;;;;;5055859;28;20025;-68
2021/09/05 00:20:34;;;;;;;18.85;11.25;;;;;;;;;;5055876;28;20029;-67
2021/09/05 00:23:03;;;;;;;17.48;11.40;;;;;;;;;;5055845;28;20029;-67
2021/09/05 00:25:30;;;;;;;18.10;11.35;;;;;;;;;;5055906;28;20021;-66
2021/09/05 00:27:56;;;;;;;17.55;10.80;;;;;;;;;;5055816;28;20025;-67
2021/09/05 00:30:22;;;;;;;18.08;11.95;;;;;;;;;;5055821;28;20062;-67
2021/09/05 00:32:48;;;;;;;18.63;11.68;;;;;;;;;;5055701;28;20036;-68
2021/09/05 00:35:14;;;;;;;17.65;11.05;;;;;;;;;;5055819;28;20063;-67
2021/09/05 00:37:41;;;;;;;19.35;12.32;;;;;;;;;;5055578;28;20059;-67
2021/09/05 00:40:07;;;;;;;19.27;11.20;;;;;;;;;;5054385;28;20029;-67
2021/09/05 00:42:33;;;;;;;22.75;11.38;;;;;;;;;;5071485;28;20052;-67
2021/09/05 00:44:59;;;;;;;21.13;11.50;;;;;;;;;;5075507;28;20123;-67
2021/09/05 00:47:25;;;;;;;18.48;11.27;;;;;;;;;;5075320;28;20047;-67
2021/09/05 00:49:52;;;;;;;22.65;11.82;;;;;;;;;;5075320;28;20370;-67
2021/09/05 00:52:21;;;;;;;17.95;10.45;;;;;;;;;;5075361;28;20025;-67
2021/09/05 00:54:47;;;;;;;17.27;11.30;;;;;;;;;;5075241;28;20481;-67
2021/09/05 00:57:14;;;;;;;22.05;12.80;;;;;;;;;;5075268;28;20024;-66
2021/09/05 00:59:41;;;;;;;19.83;10.68;;;;;;;;;;5075269;28;20050;-67
2021/09/05 01:02:08;;;;;;;19.25;12.05;;;;;;;;;;5058203;28;20029;-71
2021/09/05 01:04:34;;;;;;;23.25;11.70;;;;;;;;;;5057148;28;20118;-69
2021/09/05 01:07:00;;;;;;;15.73;10.73;;;;;;;;;;5074992;28;20039;-70
2021/09/05 01:09:28;;;;;;;19.52;12.30;;;;;;;;;;5075140;28;20082;-69
2021/09/05 01:11:54;;;;;;;19.55;11.32;;;;;;;;;;5075067;28;20086;-69
2021/09/05 01:14:20;;;;;;;18.88;11.27;;;;;;;;;;5074941;28;20032;-70
2021/09/05 01:16:46;;;;;;;20.70;12.27;;;;;;;;;;5056974;28;20039;-68
2021/09/05 01:19:14;;;;;;;17.90;12.38;;;;;;;;;;5074868;28;20082;-67
2021/09/05 01:21:43;;;;;;;22.75;12.93;;;;;;;;;;5056873;28;20515;-67
2021/09/05 01:24:10;;;;;;;20.77;12.30;;;;;;;;;;5074784;28;20028;-67
2021/09/05 01:26:37;;;;;;;20.05;11.90;;;;;;;;;;5074734;28;20104;-68
2021/09/05 01:29:04;;;;;;;21.30;12.48;;;;;;;;;;5070170;28;20017;-67
2021/09/05 01:31:40;;;;;;;18.05;11.52;;;;;;;;;;5056582;28;20070;-68
2021/09/05 01:34:07;;;;;;;20.10;13.50;;;;;;;;;;5074548;28;20043;-67
2021/09/05 01:36:34;;;;;;;18.13;10.93;;;;;;;;;;5074554;28;20039;-67
2021/09/05 01:39:00;;;;;;;19.10;12.55;;;;;;;;;;5074420;28;20055;-68
2021/09/05 01:41:26;;;;;;;22.63;12.00;;;;;;;;;;5056375;28;20023;-67
2021/09/05 01:44:02;;;;;;;18.55;12.18;;;;;;;;;;5074366;28;20358;-69
2021/09/05 01:46:29;;;;;;;21.50;12.25;;;;;;;;;;5074087;28;20044;-69
2021/09/05 01:48:55;;;;;;;21.08;12.73;;;;;;;;;;5074212;28;20118;-70
2021/09/05 01:51:21;;;;;;;18.58;11.57;;;;;;;;;;5073904;28;20020;-69
2021/09/05 01:53:47;;;;;;;19.42;11.05;;;;;;;;;;5056022;28;20028;-69
2021/09/05 01:56:13;;;;;;;17.35;10.27;;;;;;;;;;5074035;28;20024;-69
2021/09/05 01:58:39;;;;;;;22.00;12.65;;;;;;;;;;5056080;28;20027;-69
2021/09/05 02:01:05;;;;;;;16.60;11.27;;;;;;;;;;5056117;28;20351;-71
2021/09/05 02:03:32;;;;;;;15.70;10.82;;;;;;;;;;5074043;28;20024;-70
2021/09/05 02:05:58;;;;;;;19.42;11.20;;;;;;;;;;5073956;28;20082;-70
2021/09/05 02:08:24;;;;;;;16.60;10.57;;;;;;;;;;5073946;28;20401;-69
2021/09/05 02:10:50;;;;;;;19.35;10.90;;;;;;;;;;5055955;28;20029;-70
2021/09/05 02:13:16;;;;;;;19.00;11.68;;;;;;;;;;5055734;28;20119;-69
2021/09/05 02:15:42;;;;;;;17.50;11.35;;;;;;;;;;5073648;28;20066;-70
2021/09/05 02:18:09;;;;;;;19.27;10.88;;;;;;;;;;5056007;28;20027;-69
2021/09/05 02:20:35;;;;;;;18.58;11.40;;;;;;;;;;5055759;28;20024;-69
2021/09/05 02:23:01;;;;;;;18.77;10.90;;;;;;;;;;5073617;28;20040;-69
2021/09/05 02:25:27;;;;;;;20.52;11.18;;;;;;;;;;5073543;28;20024;-69
2021/09/05 02:27:53;;;;;;;21.45;12.95;;;;;;;;;;5073505;28;20028;-71
2021/09/05 02:30:19;;;;;;;17.55;11.88;;;;;;;;;;5073478;28;20489;-69
2021/09/05 02:32:45;;;;;;;18.85;11.05;;;;;;;;;;5073476;28;20017;-69
2021/09/05 02:35:11;;;;;;;19.83;10.85;;;;;;;;;;5073280;28;20036;-69
2021/09/05 02:37:38;;;;;;;14.95;10.00;;;;;;;;;;5073364;28;20023;-70
2021/09/05 02:40:06;;;;;;;19.00;11.30;;;;;;;;;;5073390;28;20016;-68
2021/09/05 02:42:33;;;;;;;18.13;10.98;;;;;;;;;;5057465;28;20024;-70
2021/09/05 02:45:01;;;;;;;18.08;10.73;;;;;;;;;;5053306;28;20425;-69
2021/09/05 02:47:27;;;;;;;22.38;12.57;;;;;;;;;;5051711;28;20059;-70
2021/09/05 02:49:53;;;;;;;20.15;11.85;;;;;;;;;;5053258;28;20025;-69
2021/09/05 02:52:19;;;;;;;19.08;11.52;;;;;;;;;;5053161;28;20389;-68
2021/09/05 02:54:45;;;;;;;16.23;11.15;;;;;;;;;;5051768;28;20032;-68
2021/09/05 02:57:11;;;;;;;22.58;11.90;;;;;;;;;;5051780;28;20112;-69
2021/09/05 02:59:37;;;;;;;16.85;11.43;;;;;;;;;;5053077;28;20370;-68
2021/09/05 03:02:03;;;;;;;17.48;9.88;;;;;;;;;;5051173;28;20043;-68
2021/09/05 03:04:30;;;;;;;17.45;11.55;;;;;;;;;;5052998;28;20496;-69
2021/09/05 03:06:56;;;;;;;18.48;11.55;;;;;;;;;;5051790;28;20059;-69
2021/09/05 03:09:22;;;;;;;17.20;11.52;;;;;;;;;;5051663;28;20037;-69
2021/09/05 03:11:48;;;;;;;18.08;10.48;;;;;;;;;;5053038;28;20493;-68
2021/09/05 03:14:14;;;;;;;20.63;11.88;;;;;;;;;;5052799;28;20025;-69
2021/09/05 03:16:41;;;;;;;19.05;10.50;;;;;;;;;;5052928;28;20104;-69
2021/09/05 03:19:07;;;;;;;22.45;11.52;;;;;;;;;;5052844;28;20018;-69
2021/09/05 03:21:33;;;;;;;18.88;10.82;;;;;;;;;;5052837;28;20021;-69
2021/09/05 03:23:59;;;;;;;18.27;10.50;;;;;;;;;;5052800;28;20028;-68
2021/09/05 03:26:25;;;;;;;20.25;11.50;;;;;;;;;;5052670;28;20032;-69
2021/09/05 03:28:51;;;;;;;21.48;10.77;;;;;;;;;;5051319;28;20036;-68
2021/09/05 03:31:17;;;;;;;18.70;11.02;;;;;;;;;;5051268;28;20033;-68
2021/09/05 03:33:43;;;;;;;18.45;12.38;;;;;;;;;;5052606;28;20069;-69
2021/09/05 03:36:09;;;;;;;21.55;13.00;;;;;;;;;;5052558;28;20026;-69
2021/09/05 03:38:35;;;;;;;15.15;10.20;;;;;;;;;;5051191;28;20021;-68
2021/09/05 03:41:01;;;;;;;17.02;10.75;;;;;;;;;;5055819;28;20077;-70
2021/09/05 03:43:28;;;;;;;19.67;11.27;;;;;;;;;;5072482;28;20029;-69
2021/09/05 03:45:54;;;;;;;19.88;11.73;;;;;;;;;;5054283;28;20028;-68
2021/09/05 03:48:20;;;;;;;22.30;11.02;;;;;;;;;;5072526;28;20032;-70
2021/09/05 03:50:46;;;;;;;16.05;11.75;;;;;;;;;;5072398;28;20107;-70
2021/09/05 03:53:12;;;;;;;20.60;10.93;;;;;;;;;;5072420;28;20021;-69
2021/09/05 03:55:38;;;;;;;19.38;11.70;;;;;;;;;;5072403;28;20105;-69
2021/09/05 03:58:06;;;;;;;15.20;9.32;;;;;;;;;;5054424;28;20032;-68
2021/09/05 04:00:32;;;;;;;19.30;11.32;;;;;;;;;;5072523;28;20017;-68
2021/09/05 04:02:58;;;;;;;18.83;11.95;;;;;;;;;;5072492;28;20025;-68
2021/09/05 04:05:25;;;;;;;17.13;11.40;;;;;;;;;;5054304;28;20021;-69
2021/09/05 04:10:29;;;;;;;19.75;11.20;;;;;;;;;;5072316;28;20358;-69
2021/09/05 04:12:57;;;;;;;17.80;10.13;;;;;;;;;;5072939;28;20554;-69
2021/09/05 04:15:23;;;;;;;19.92;12.40;;;;;;;;;;5057905;28;20055;-68
2021/09/05 04:17:49;;;;;;;19.92;10.20;;;;;;;;;;5075881;28;20408;-69
2021/09/05 04:20:15;;;;;;;20.40;11.45;;;;;;;;;;5075430;28;20028;-70
2021/09/05 04:22:42;;;;;;;18.95;10.10;;;;;;;;;;5075900;28;20032;-69
2021/09/05 04:25:08;;;;;;;15.13;10.52;;;;;;;;;;5075827;28;20425;-69
2021/09/05 04:27:34;;;;;;;17.23;10.23;;;;;;;;;;5075774;28;20036;-69
2021/09/05 04:30:00;;;;;;;18.55;10.45;;;;;;;;;;5071325;28;20039;-69
2021/09/05 04:32:27;;;;;;;17.42;10.93;;;;;;;;;;5066807;28;20029;-69
2021/09/05 04:34:53;;;;;;;17.10;10.35;;;;;;;;;;5055673;28;20573;-69
2021/09/05 04:37:20;;;;;;;16.20;10.70;;;;;;;;;;5055562;28;20025;-68
2021/09/05 04:39:52;;;;;;;18.65;11.20;;;;;;;;;;5055744;28;20146;-70
2021/09/05 04:42:18;;;;;;;21.55;12.85;;;;;;;;;;5069390;28;20032;-68
2021/09/05 04:44:44;;;;;;;26.63;14.88;;;;;;;;;;5075452;28;20028;-68
2021/09/05 04:47:10;;;;;;;21.20;12.48;;;;;;;;;;5057250;28;20048;-69
2021/09/05 04:49:36;;;;;;;20.77;11.77;;;;;;;;;;5057392;28;20032;-68
2021/09/05 04:52:03;;;;;;;26.67;16.08;;;;;;;;;;5075404;28;20032;-68
2021/09/05 04:54:30;;;;;;;26.20;13.45;;;;;;;;;;5057274;28;20025;-68
2021/09/05 04:56:56;;;;;;;21.83;12.45;;;;;;;;;;5057281;28;20025;-68
2021/09/05 04:59:22;;;;;;;23.15;12.30;;;;;;;;;;5075252;28;20024;-70
2021/09/05 05:01:48;;;;;;;19.15;11.68;;;;;;;;;;5075242;28;20560;-69
2021/09/05 05:04:14;;;;;;;18.60;11.57;;;;;;;;;;5057260;28;20025;-70
2021/09/05 05:06:41;;;;;;;22.20;12.55;;;;;;;;;;5075151;28;20489;-69
2021/09/05 05:09:08;;;;;;;18.35;11.07;;;;;;;;;;5057110;28;20031;-68
2021/09/05 05:11:34;;;;;;;20.73;12.00;;;;;;;;;;5075011;28;20029;-68
2021/09/05 05:14:00;;;;;;;19.98;11.20;;;;;;;;;;5074898;28;20074;-69
2021/09/05 05:16:26;;;;;;;30.90;15.10;;;;;;;;;;5074903;28;20390;-69
2021/09/05 05:18:52;;;;;;;27.77;14.00;;;;;;;;;;5075004;28;20471;-69
2021/09/05 05:21:18;;;;;;;28.85;15.73;;;;;;;;;;5074840;28;20016;-69
2021/09/05 05:23:44;;;;;;;27.33;14.48;;;;;;;;;;5074773;28;20104;-68
2021/09/05 05:26:10;;;;;;;24.33;15.05;;;;;;;;;;5074081;28;20036;-70
2021/09/05 05:28:37;;;;;;;27.20;15.45;;;;;;;;;;5074669;28;20589;-69
2021/09/05 05:31:03;;;;;;;25.73;15.00;;;;;;;;;;5056707;28;20020;-69
2021/09/05 05:33:29;;;;;;;21.05;13.45;;;;;;;;;;5074558;28;20493;-69
2021/09/05 05:35:55;;;;;;;19.45;13.35;;;;;;;;;;5056597;28;20025;-68
2021/09/05 05:38:21;;;;;;;19.10;12.13;;;;;;;;;;5074504;28;20021;-68
2021/09/05 05:40:47;;;;;;;23.98;15.15;;;;;;;;;;5055177;28;20024;-68
2021/09/05 05:43:13;;;;;;;21.75;15.68;;;;;;;;;;5054380;28;20056;-68
2021/09/05 05:45:39;;;;;;;20.80;13.52;;;;;;;;;;5052999;28;20348;-69
2021/09/05 05:48:05;;;;;;;21.70;14.63;;;;;;;;;;5054569;28;20037;-69
2021/09/05 05:50:31;;;;;;;24.73;15.60;;;;;;;;;;5054259;28;20092;-68
2021/09/05 05:52:57;;;;;;;35.42;18.17;;;;;;;;;;5054219;28;20029;-69
2021/09/05 05:55:24;;;;;;;25.10;16.60;;;;;;;;;;5054069;28;20025;-69
2021/09/05 05:57:50;;;;;;;19.90;13.10;;;;;;;;;;5054136;28;20266;-69
2021/09/05 06:00:16;;;;;;;20.30;13.38;;;;;;;;;;5053071;28;20029;-68
2021/09/05 06:02:42;;;;;;;21.50;13.30;;;;;;;;;;5052679;28;20025;-69
2021/09/05 06:05:08;;;;;;;18.88;11.35;;;;;;;;;;5053991;28;20033;-70
2021/09/05 06:07:34;;;;;;;20.88;13.35;;;;;;;;;;5053925;28;20029;-68
2021/09/05 06:10:00;;;;;;;52.58;33.97;;;;;;;;;;5053908;28;20106;-69
2021/09/05 06:12:26;;;;;;;70.93;42.45;;;;;;;;;;5052611;28;20403;-69
2021/09/05 06:14:53;;;;;;;48.15;29.63;;;;;;;;;;5053671;28;20025;-69
2021/09/05 06:17:19;;;;;;;29.48;18.25;;;;;;;;;;5053690;28;20386;-69
2021/09/05 06:19:45;;;;;;;25.63;15.90;;;;;;;;;;5053711;28;20024;-69
2021/09/05 06:22:11;;;;;;;29.27;17.88;;;;;;;;;;5053650;28;20440;-68
2021/09/05 06:24:37;;;;;;;28.10;16.88;;;;;;;;;;5053594;28;20083;-69
2021/09/05 06:27:04;;;;;;;22.60;12.45;;;;;;;;;;5053500;28;20025;-70
2021/09/05 06:29:30;;;;;;;18.42;12.48;;;;;;;;;;5053457;28;20039;-69
2021/09/05 06:31:56;;;;;;;15.05;10.38;;;;;;;;;;5053399;28;20392;-69
2021/09/05 06:34:22;;;;;;;16.38;11.25;;;;;;;;;;5052030;28;20024;-69
2021/09/05 06:36:48;;;;;;;27.13;12.18;;;;;;;;;;5052599;28;20032;-69
2021/09/05 06:39:14;;;;;;;21.92;12.65;;;;;;;;;;5052367;28;20025;-69
2021/09/05 06:41:40;;;;;;;18.80;12.32;;;;;;;;;;5061957;28;20024;-69
2021/09/05 06:44:06;;;;;;;17.23;11.77;;;;;;;;;;5073279;28;20028;-69
2021/09/05 06:46:32;;;;;;;19.40;13.30;;;;;;;;;;5073005;28;20049;-69
2021/09/05 06:48:59;;;;;;;20.73;12.88;;;;;;;;;;5073186;28;20035;-69
2021/09/05 06:51:25;;;;;;;16.50;11.68;;;;;;;;;;5073190;28;20043;-69
2021/09/05 06:53:51;;;;;;;16.02;12.55;;;;;;;;;;5073060;28;20028;-69
2021/09/05 06:56:17;;;;;;;28.20;12.70;;;;;;;;;;5073074;28;20104;-69
2021/09/05 06:58:43;;;;;;;17.30;11.43;;;;;;;;;;5073132;28;20021;-68
2021/09/05 07:01:09;;;;;;;20.02;11.82;;;;;;;;;;5054987;28;20020;-69
2021/09/05 07:03:35;;;;;;;21.20;12.07;;;;;;;;;;5072994;28;20032;-69
2021/09/05 07:06:01;;;;;;;16.88;11.88;;;;;;;;;;5073015;28;20039;-69
2021/09/05 07:08:27;;;;;;;19.65;11.25;;;;;;;;;;5072908;28;20024;-67
2021/09/05 07:10:53;;;;;;;16.52;12.00;;;;;;;;;;5072880;28;20566;-67
2021/09/05 07:13:19;;;;;;;19.80;12.07;;;;;;;;;;5054875;28;20024;-66
2021/09/05 07:15:45;;;;;;;20.20;11.18;;;;;;;;;;5072902;28;20025;-67
2021/09/05 07:18:11;;;;;;;18.15;11.63;;;;;;;;;;5072915;28;20082;-67
2021/09/05 07:20:37;;;;;;;18.70;12.15;;;;;;;;;;5072733;28;20587;-67
2021/09/05 07:23:04;;;;;;;21.92;12.80;;;;;;;;;;5072822;28;20017;-67
2021/09/05 07:25:30;;;;;;;16.73;11.93;;;;;;;;;;5072821;28;20031;-67
2021/09/05 07:27:56;;;;;;;24.38;14.40;;;;;;;;;;5072759;28;20103;-67
2021/09/05 07:30:22;;;;;;;23.10;13.90;;;;;;;;;;5073072;28;20170;-67
2021/09/05 07:32:48;;;;;;;23.15;13.75;;;;;;;;;;5072663;28;20024;-67
2021/09/05 07:35:14;;;;;;;19.65;13.68;;;;;;;;;;5072617;28;20047;-67
2021/09/05 07:37:44;;;;;;;25.08;14.50;;;;;;;;;;5072620;28;20036;-67
2021/09/05 07:40:11;;;;;;;25.88;15.43;;;;;;;;;;5072648;28;20031;-69
2021/09/05 07:42:37;;;;;;;31.48;16.48;;;;;;;;;;5056088;28;20029;-67
2021/09/05 07:45:03;;;;;;;51.60;24.33;;;;;;;;;;5052501;28;20497;-67
2021/09/05 07:47:29;;;;;;;41.78;20.02;;;;;;;;;;5063096;28;20448;-67
2021/09/05 07:49:55;;;;;;;30.27;16.60;;;;;;;;;;5076473;28;20103;-67
2021/09/05 07:52:21;;;;;;;22.38;13.93;;;;;;;;;;5076378;28;20078;-67
2021/09/05 07:54:47;;;;;;;25.55;13.65;;;;;;;;;;5058300;28;20025;-67
2021/09/05 07:57:13;;;;;;;21.70;12.88;;;;;;;;;;5076284;28;20028;-67
2021/09/05 07:59:39;;;;;;;20.67;13.13;;;;;;;;;;5076258;28;20020;-67
2021/09/05 08:02:06;;;;;;;23.38;14.65;;;;;;;;;;5076204;28;20024;-67
2021/09/05 08:04:33;;;;;;;19.88;12.68;;;;;;;;;;5058208;28;20025;-67
2021/09/05 08:06:59;;;;;;;22.58;13.70;;;;;;;;;;5058142;28;20025;-67
2021/09/05 08:09:25;;;;;;;25.35;13.38;;;;;;;;;;5076076;28;20548;-67
2021/09/05 08:11:51;;;;;;;21.25;14.13;;;;;;;;;;5075731;28;20378;-67
2021/09/05 08:14:17;;;;;;;19.73;13.65;;;;;;;;;;5075902;28;20039;-67
2021/09/05 08:16:43;;;;;;;31.45;16.98;;;;;;;;;;5075806;28;20025;-67
2021/09/05 08:19:09;;;;;;;27.83;16.80;;;;;;;;;;5057868;28;20012;-67
2021/09/05 08:21:35;;;;;;;29.13;15.43;;;;;;;;;;5075800;28;20024;-67
2021/09/05 08:24:01;;;;;;;20.33;13.40;;;;;;;;;;5057875;28;20033;-67
2021/09/05 08:26:27;;;;;;;20.02;12.82;;;;;;;;;;5075879;28;20111;-67
2021/09/05 08:28:54;;;;;;;19.88;11.93;;;;;;;;;;5065655;28;20028;-67
2021/09/05 08:31:20;;;;;;;22.85;13.60;;;;;;;;;;5054433;28;20355;-67
2021/09/05 08:33:46;;;;;;;21.20;12.98;;;;;;;;;;5057170;28;20412;-68
2021/09/05 08:36:12;;;;;;;21.33;13.30;;;;;;;;;;5075523;28;20082;-67
2021/09/05 08:38:38;;;;;;;20.25;13.27;;;;;;;;;;5074971;28;20056;-67
2021/09/05 08:41:05;;;;;;;23.13;12.77;;;;;;;;;;5046766;28;20115;-66
2021/09/05 08:43:31;;;;;;;21.13;13.75;;;;;;;;;;5057418;28;20029;-66
2021/09/05 08:45:57;;;;;;;18.98;11.73;;;;;;;;;;5188603;22;20419;-75
2021/09/05 08:48:23;;;;;;;20.23;12.90;;;;;;;;;;5078403;28;20031;-75
2021/09/05 08:50:51;;;;;;;19.33;12.43;;;;;;;;;;5080177;28;20052;-74
2021/09/05 08:53:17;;;;;;;18.77;12.88;;;;;;;;;;5079801;28;20625;-75
2021/09/05 08:55:44;;;;;;;19.60;13.35;;;;;;;;;;5097354;28;20054;-75
2021/09/05 08:58:10;;;;;;;23.50;14.20;;;;;;;;;;5098629;28;20031;-75
2021/09/05 09:00:36;;;;;;;24.08;13.68;;;;;;;;;;5079634;28;20024;-75
2021/09/05 09:03:03;;;;;;;21.85;14.55;;;;;;;;;;5098400;28;20173;-75
2021/09/05 09:05:30;;;;;;;22.70;14.38;;;;;;;;;;5080247;28;20033;-74
2021/09/05 09:07:58;;;;;;;20.17;13.43;;;;;;;;;;5097961;28;20106;-75
2021/09/05 09:10:24;;;;;;;27.35;14.82;;;;;;;;;;5131506;23;20062;-70
2021/09/05 09:12:50;;;;;;;20.42;13.45;;;;;;;;;;5090403;28;20028;-71
2021/09/05 09:15:20;;;;;;;30.30;16.42;;;;;;;;;;5094751;28;20552;-71
2021/09/05 09:17:49;;;;;;;27.05;16.13;;;;;;;;;;5095274;28;20042;-71
2021/09/05 09:20:29;;;;;;;24.08;14.77;;;;;;;;;;5095061;28;20034;-70
2021/09/05 09:23:24;;;;;;;27.80;15.65;;;;;;;;;;5095795;28;20094;-72
2021/09/05 09:25:59;;;;;;;23.55;15.70;;;;;;;;;;5082347;28;20064;-71
2021/09/05 09:28:25;;;;;;;;;;;;;;;;;;5095937;28;20024;-71
2021/09/05 09:30:52;;;;;;;25.67;15.45;;;;;;;;;;5095564;28;19915;-71
2021/09/05 09:33:28;;;;;;;25.20;15.98;;;;;;;;;;5095480;28;20464;-71
2021/09/05 09:35:55;;;;;;;24.40;15.27;;;;;;;;;;5095407;28;20083;-70
2021/09/05 09:38:22;;;;;;;26.83;16.13;;;;;;;;;;5095533;28;20479;-70
2021/09/05 09:40:48;;;;;;;25.17;15.95;;;;;;;;;;5094397;28;20020;-71
2021/09/05 09:43:19;;;;;;;25.42;16.20;;;;;;;;;;5095754;28;20032;-71
2021/09/05 09:45:45;;;;;;;24.90;15.73;;;;;;;;;;5095576;28;20024;-71
2021/09/05 09:48:11;;;;;;;22.92;14.50;;;;;;;;;;5095396;28;20023;-70
2021/09/05 09:50:43;;;;;;;23.15;14.77;;;;;;;;;;5094918;28;20020;-72
2021/09/05 09:53:09;;;;;;;26.25;15.93;;;;;;;;;;5095391;28;20024;-72
2021/09/05 09:55:39;;;;;;;25.33;16.50;;;;;;;;;;5095208;28;20031;-73
2021/09/05 10:03:17;;;;;;;23.65;14.52;;;;;;;;;;5120201;22;20141;-75
2021/09/05 10:05:44;;;;;;;24.98;14.40;;;;;;;;;;5057949;28;20612;-75
2021/09/05 10:08:11;;;;;;;22.63;15.75;;;;;;;;;;5051484;28;20058;-76
2021/09/05 10:10:37;;;;;;;24.42;14.88;;;;;;;;;;5076519;28;20459;-75
2021/09/05 10:13:04;;;;;;;22.27;15.10;;;;;;;;;;5077329;28;20052;-74
2021/09/05 10:15:31;;;;;;;20.45;14.15;;;;;;;;;;5074968;28;20439;-75
2021/09/05 10:17:58;;;;;;;23.23;14.63;;;;;;;;;;5076849;28;20499;-75
2021/09/05 10:20:24;;;;;;;25.40;14.95;;;;;;;;;;5059005;28;20413;-76
2021/09/05 10:22:50;;;;;;;24.17;15.25;;;;;;;;;;5075401;28;20461;-75
2021/09/05 10:25:17;;;;;;;21.23;14.23;;;;;;;;;;5075017;28;20028;-75
2021/09/05 10:27:50;;;;;;;21.60;15.82;;;;;;;;;;5075566;28;20053;-76
2021/09/05 10:30:17;;;;;;;22.55;16.13;;;;;;;;;;5075122;28;20051;-75
2021/09/05 10:32:46;;;;;;;20.20;14.27;;;;;;;;;;5074964;28;20020;-75
2021/09/05 10:35:25;;;;;;;21.20;13.60;;;;;;;;;;5075191;28;20362;-75
2021/09/05 10:38:11;;;;;;;24.88;15.15;;;;;;;;;;5056312;28;20052;-75
2021/09/05 10:40:43;;;;;;;26.38;15.52;;;;;;;;;;5076575;28;20024;-75
2021/09/05 10:43:09;;;;;;;21.75;14.73;;;;;;;;;;5075199;28;20028;-74
2021/09/05 10:45:36;;;;;;;23.38;15.52;;;;;;;;;;5075392;28;20060;-76
2021/09/05 10:48:02;;;;;;;20.13;14.30;;;;;;;;;;5074349;28;20518;-75
2021/09/05 10:50:38;;;;;;;22.80;14.63;;;;;;;;;;5075858;28;20060;-76
2021/09/05 10:53:15;;;;;;;23.27;14.32;;;;;;;;;;5057598;28;20039;-76
2021/09/05 10:55:59;;;;;;;21.98;12.13;;;;;;;;;;5075587;28;20021;-76
2021/09/05 10:58:35;;;;;;;24.15;15.38;;;;;;;;;;5075545;28;20029;-76
2021/09/05 11:01:05;;;;;;;18.45;13.20;;;;;;;;;;5057034;28;20020;-76
2021/09/05 11:03:31;;;;;;;21.77;12.70;;;;;;;;;;5036268;28;20509;-76
2021/09/05 11:06:16;;;;;;;20.80;13.35;;;;;;;;;;5036191;28;20031;-76
2021/09/05 11:08:42;;;;;;;20.52;12.95;;;;;;;;;;5036144;28;20057;-76
2021/09/05 11:11:08;;;;;;;20.17;12.80;;;;;;;;;;5034227;28;20187;-75
2021/09/05 11:13:50;;;;;;;17.15;12.80;;;;;;;;;;5034690;28;20025;-75
2021/09/05 11:16:19;;;;;;;21.67;13.40;;;;;;;;;;5035628;28;20018;-76
2021/09/05 11:18:45;;;;;;;20.52;12.88;;;;;;;;;;5036179;28;20036;-75
2021/09/05 11:21:24;;;;;;;21.20;13.88;;;;;;;;;;5032709;28;20021;-76
2021/09/05 11:23:51;;;;;;;19.13;12.60;;;;;;;;;;5038974;28;20052;-76
2021/09/05 11:26:18;;;;;;;20.98;13.60;;;;;;;;;;5041134;28;20096;-76
2021/09/05 11:28:44;;;;;;;19.05;12.68;;;;;;;;;;5040977;28;20017;-76
2021/09/05 11:31:10;;;;;;;19.52;12.38;;;;;;;;;;5042261;28;20120;-76
2021/09/05 11:33:36;;;;;;;20.73;12.13;;;;;;;;;;5042209;28;20025;-76
2021/09/05 11:36:06;;;;;;;19.55;12.75;;;;;;;;;;5042513;28;20040;-76
2021/09/05 11:38:33;;;;;;;18.52;12.90;;;;;;;;;;5041225;28;20513;-76
2021/09/05 11:40:59;;;;;;;19.08;12.75;;;;;;;;;;5040387;28;20025;-76
2021/09/05 11:43:55;;;;;;;19.55;12.75;;;;;;;;;;5042058;28;20209;-77
2021/09/05 11:46:22;;;;;;;18.88;12.65;;;;;;;;;;5024980;28;20036;-76
2021/09/05 11:48:55;;;;;;;20.27;12.25;;;;;;;;;;5041623;28;20021;-76
2021/09/05 11:51:21;;;;;;;18.20;11.27;;;;;;;;;;5041402;28;20021;-76
2021/09/05 11:53:59;;;;;;;18.52;12.35;;;;;;;;;;5042449;28;20030;-76
2021/09/05 11:56:29;;;;;;;20.30;11.70;;;;;;;;;;5041804;28;20029;-76
2021/09/05 11:58:55;;;;;;;15.23;10.80;;;;;;;;;;5040444;28;20057;-76
2021/09/05 12:01:21;;;;;;;16.88;11.68;;;;;;;;;;5045737;28;20032;-75
2021/09/05 12:03:47;;;;;;;15.65;11.95;;;;;;;;;;5081997;28;20017;-75
2021/09/05 12:06:13;;;;;;;19.25;10.93;;;;;;;;;;5063582;28;20035;-75
2021/09/05 12:08:40;;;;;;;20.77;12.45;;;;;;;;;;5064316;28;20115;-75
2021/09/05 12:11:07;;;;;;;16.98;12.20;;;;;;;;;;5064496;28;20477;-76
2021/09/05 12:13:50;;;;;;;16.80;11.68;;;;;;;;;;5082049;28;20484;-76
2021/09/05 12:16:27;;;;;;;18.92;12.18;;;;;;;;;;5082146;28;20485;-76
2021/09/05 12:19:00;;;;;;;20.38;13.25;;;;;;;;;;5081981;28;20362;-75
2021/09/05 12:21:30;;;;;;;13.75;10.85;;;;;;;;;;5081820;28;20102;-76
2021/09/05 12:23:56;;;;;;;15.63;11.80;;;;;;;;;;5081050;28;20021;-76
2021/09/05 12:26:22;;;;;;;18.40;12.65;;;;;;;;;;5081779;28;20024;-76
2021/09/05 12:29:01;;;;;;;18.50;11.98;;;;;;;;;;5082293;28;20401;-75
2021/09/05 12:31:38;;;;;;;17.77;13.02;;;;;;;;;;5082047;28;20025;-76
2021/09/05 12:34:04;;;;;;;17.02;11.95;;;;;;;;;;5080482;28;20029;-76
2021/09/05 12:36:30;;;;;;;18.23;12.88;;;;;;;;;;5060766;28;20028;-75
2021/09/05 12:38:57;;;;;;;17.88;12.05;;;;;;;;;;5078918;28;20025;-76
2021/09/05 12:41:24;;;;;;;21.67;13.40;;;;;;;;;;5060520;28;20035;-75
2021/09/05 12:43:50;;;;;;;24.83;15.82;;;;;;;;;;5078293;28;20025;-76
2021/09/05 12:46:18;;;;;;;21.13;14.98;;;;;;;;;;5078228;28;20452;-76
2021/09/05 12:48:46;;;;;;;19.98;15.15;;;;;;;;;;5078577;28;20028;-76
2021/09/05 12:51:15;;;;;;;23.13;15.27;;;;;;;;;;5078371;28;20111;-77
2021/09/05 12:53:53;;;;;;;23.55;15.43;;;;;;;;;;5078832;28;20027;-79
2021/09/05 12:56:19;;;;;;;27.95;17.13;;;;;;;;;;5079068;28;20024;-77
2021/09/05 12:58:45;;;;;;;23.63;15.73;;;;;;;;;;5078722;28;20029;-77
2021/09/05 13:01:21;;;;;;;23.00;16.05;;;;;;;;;;5078433;28;20027;-77
2021/09/05 13:03:47;;;;;;;18.80;15.02;;;;;;;;;;5078167;28;20031;-77
2021/09/05 13:06:13;;;;;;;23.20;15.02;;;;;;;;;;5060617;28;20035;-78
2021/09/05 13:08:39;;;;;;;26.58;17.38;;;;;;;;;;5078869;28;20033;-77
2021/09/05 13:11:06;;;;;;;22.95;16.40;;;;;;;;;;5060195;28;20032;-77
2021/09/05 13:13:32;;;;;;;28.52;16.63;;;;;;;;;;5078066;28;20028;-77
2021/09/05 13:15:58;;;;;;;19.15;14.38;;;;;;;;;;5076784;28;20024;-77
2021/09/05 13:18:24;;;;;;;22.52;16.20;;;;;;;;;;5076687;28;20025;-76
2021/09/05 13:20:50;;;;;;;23.85;16.05;;;;;;;;;;5076200;28;20020;-76
2021/09/05 13:23:16;;;;;;;25.25;15.05;;;;;;;;;;5077119;28;20391;-76
2021/09/05 13:25:42;;;;;;;25.90;16.85;;;;;;;;;;5077233;28;20109;-76
2021/09/05 13:28:08;;;;;;;21.50;15.18;;;;;;;;;;5076264;28;20039;-76
2021/09/05 13:30:34;;;;;;;25.52;17.45;;;;;;;;;;5076576;28;20025;-76
2021/09/05 13:33:00;;;;;;;23.77;15.27;;;;;;;;;;5058172;28;20116;-76
2021/09/05 13:35:26;;;;;;;22.70;15.82;;;;;;;;;;5057858;28;20025;-75
2021/09/05 13:37:53;;;;;;;22.33;14.95;;;;;;;;;;5076497;28;20024;-75
2021/09/05 13:40:19;;;;;;;21.98;13.77;;;;;;;;;;5058466;28;20016;-76
2021/09/05 13:42:45;;;;;;;23.48;14.88;;;;;;;;;;5076344;28;20028;-75
2021/09/05 13:45:11;;;;;;;20.55;14.55;;;;;;;;;;5076123;28;20021;-75
2021/09/05 13:47:38;;;;;;;20.63;15.00;;;;;;;;;;5057456;28;20024;-75
2021/09/05 13:50:06;;;;;;;21.25;14.75;;;;;;;;;;5075391;28;20115;-74
2021/09/05 13:52:32;;;;;;;21.25;14.18;;;;;;;;;;5075646;28;20077;-74
2021/09/05 13:54:59;;;;;;;19.52;14.65;;;;;;;;;;5075812;28;20021;-75
2021/09/05 13:57:26;;;;;;;22.23;13.98;;;;;;;;;;5057076;28;20028;-75
2021/09/05 13:59:52;;;;;;;20.58;13.98;;;;;;;;;;5057937;28;20028;-75
2021/09/05 14:02:18;;;;;;;19.25;13.60;;;;;;;;;;5075622;28;20048;-75
2021/09/05 14:04:44;;;;;;;15.32;12.43;;;;;;;;;;5075769;28;20107;-75
2021/09/05 14:07:10;;;;;;;21.58;14.07;;;;;;;;;;5057720;28;20028;-76
2021/09/05 14:09:37;;;;;;;19.98;13.05;;;;;;;;;;5075380;28;20354;-75
2021/09/05 14:12:03;;;;;;;19.52;13.15;;;;;;;;;;5075505;28;20032;-75
2021/09/05 14:14:29;;;;;;;22.65;14.60;;;;;;;;;;5057682;28;20405;-75
2021/09/05 14:16:55;;;;;;;19.55;14.38;;;;;;;;;;5075099;28;20024;-76
2021/09/05 14:19:22;;;;;;;21.88;13.60;;;;;;;;;;5074921;28;20044;-75
2021/09/05 14:21:48;;;;;;;26.83;16.30;;;;;;;;;;5075615;28;20047;-75
2021/09/05 14:24:14;;;;;;;22.92;13.45;;;;;;;;;;5075371;28;20021;-75
2021/09/05 14:26:41;;;;;;;28.40;14.90;;;;;;;;;;5074903;28;20458;-76